Time;durP1;ratioP1;P1;durP2;ratioP2;P2;SDS_P1;SDS_P2;PMS_P1;PMS_P2;Temp;Humidity;BMP_temperature;BMP_pressure;BME280_temperature;BME280_humidity;BME280_pressure;Samples;Min_cycle;Max_cycle;Signal;HPM_P1;HPM_P2
2021/09/17 00:00:35;;;;;;;17.53;9.33;;;;;;;22.97;39.42;95191.41;5045890;28;20193;-72
2021/09/17 00:03:03;;;;;;;13.40;9.50;;;;;;;22.93;40.27;95212.66;5049174;28;20232;-72
2021/09/17 00:05:31;;;;;;;17.40;9.70;;;;;;;23.00;40.46;95196.88;5050597;28;20203;-71
2021/09/17 00:07:58;;;;;;;16.57;10.23;;;;;;;22.91;40.48;95169.44;5056899;28;20235;-72
2021/09/17 00:10:26;;;;;;;18.73;9.90;;;;;;;23.08;40.97;95185.31;5067867;28;20564;-72
2021/09/17 00:12:53;;;;;;;16.37;10.67;;;;;;;23.09;41.42;95178.88;5060025;28;20200;-71
2021/09/17 00:15:21;;;;;;;17.53;9.50;;;;;;;22.98;41.54;95164.34;5056373;28;20196;-70
2021/09/17 00:17:48;;;;;;;15.17;9.87;;;;;;;23.09;41.06;95149.47;5049697;28;20208;-70
2021/09/17 00:20:17;;;;;;;14.90;10.13;;;;;;;23.02;41.25;95149.22;5059406;28;20185;-72
2021/09/17 00:22:45;;;;;;;13.13;9.27;;;;;;;23.04;40.53;95160.38;5060957;28;20197;-71
2021/09/17 00:25:15;;;;;;;14.87;9.03;;;;;;;23.04;41.09;95160.38;5055083;28;20207;-71
2021/09/17 00:27:43;;;;;;;12.50;9.10;;;;;;;22.91;40.88;95161.41;5050526;28;20188;-70
2021/09/17 00:30:13;;;;;;;15.13;9.63;;;;;;;23.00;41.26;95164.81;5042765;28;20271;-71
2021/09/17 00:32:41;;;;;;;12.97;9.03;;;;;;;23.14;41.02;95167.19;5051375;28;20192;-72
2021/09/17 00:35:11;;;;;;;14.30;9.00;;;;;;;23.13;40.99;95161.09;5050937;28;20200;-70
2021/09/17 00:37:38;;;;;;;10.77;9.20;;;;;;;23.08;40.60;95161.25;5047497;28;20215;-72
2021/09/17 00:40:06;;;;;;;16.93;9.37;;;;;;;23.00;40.73;95148.78;5056897;28;20203;-71
2021/09/17 00:42:36;;;;;;;13.60;8.60;;;;;;;22.78;40.98;95129.59;5065214;28;20210;-71
2021/09/17 00:45:08;;;;;;;13.40;8.60;;;;;;;23.04;41.01;95160.38;5066741;28;20262;-69
2021/09/17 00:47:36;;;;;;;13.87;9.00;;;;;;;22.95;41.33;95157.00;5053276;28;20196;-71
2021/09/17 00:50:05;;;;;;;11.83;9.47;;;;;;;22.89;41.22;95147.59;5049066;28;20210;-70
2021/09/17 00:52:32;;;;;;;13.03;8.70;;;;;;;22.96;41.49;95152.41;5052802;28;20203;-70
2021/09/17 00:55:00;;;;;;;10.47;8.10;;;;;;;22.92;41.34;95152.28;5054088;28;20228;-70
2021/09/17 00:57:27;;;;;;;16.00;8.57;;;;;;;22.92;41.31;95152.28;5042381;28;20234;-70
2021/09/17 00:59:54;;;;;;;14.80;8.27;;;;;;;22.82;41.68;95142.00;5045853;28;20193;-71
2021/09/17 01:02:21;;;;;;;10.60;7.83;;;;;;;22.87;41.63;95152.47;5046022;28;20197;-72
2021/09/17 01:04:49;;;;;;;17.90;8.50;;;;;;;22.77;41.83;95144.84;5053879;28;20188;-71
2021/09/17 01:07:16;;;;;;;15.40;8.40;;;;;;;22.63;42.09;95138.19;5053469;28;20680;-70
2021/09/17 01:09:44;;;;;;;10.00;8.20;;;;;;;22.61;42.57;95138.50;5067927;28;20727;-72
2021/09/17 01:12:12;;;;;;;11.20;7.90;;;;;;;22.68;42.16;95136.09;5066209;28;20195;-71
2021/09/17 01:14:40;;;;;;;12.30;8.53;;;;;;;22.63;41.81;95136.31;5057823;28;20623;-69
2021/09/17 01:17:08;;;;;;;9.40;8.27;;;;;;;22.63;41.85;95122.16;5052162;28;20247;-69
2021/09/17 01:19:36;;;;;;;10.40;7.90;;;;;;;22.68;41.91;95130.75;5053390;28;20193;-70
2021/09/17 01:22:06;;;;;;;9.13;8.13;;;;;;;22.57;42.47;95113.56;5057289;28;20609;-70
2021/09/17 01:24:34;;;;;;;13.03;9.13;;;;;;;22.60;42.77;95118.28;5055019;28;20563;-70
2021/09/17 01:27:02;;;;;;;14.77;8.67;;;;;;;22.50;43.10;95123.19;5068688;28;20198;-70
2021/09/17 01:29:29;;;;;;;10.50;8.80;;;;;;;22.42;43.44;95119.47;5063933;28;20195;-70
2021/09/17 01:31:56;;;;;;;13.47;8.43;;;;;;;22.42;43.44;95106.09;5052675;28;20596;-70
2021/09/17 01:34:24;;;;;;;9.67;8.67;;;;;;;22.41;43.42;95112.53;5052801;28;20211;-71
2021/09/17 01:36:52;;;;;;;11.70;8.67;;;;;;;22.39;43.62;95101.41;5053663;28;20219;-70
2021/09/17 01:39:21;;;;;;;11.23;8.30;;;;;;;22.44;43.28;95119.91;5054760;28;20579;-69
2021/09/17 01:41:48;;;;;;;9.87;8.50;;;;;;;22.47;42.97;95107.78;5068669;28;20258;-71
2021/09/17 01:44:16;;;;;;;10.47;8.27;;;;;;;22.33;43.76;95102.72;5066947;28;20236;-71
2021/09/17 01:46:43;;;;;;;13.60;8.63;;;;;;;22.35;43.58;95116.53;5054124;28;20189;-71
2021/09/17 01:49:10;;;;;;;11.57;8.23;;;;;;;22.30;43.46;95098.00;5048034;28;20200;-70
2021/09/17 01:51:37;;;;;;;11.33;8.80;;;;;;;22.44;43.12;95111.91;5041213;28;20751;-70
2021/09/17 01:54:05;;;;;;;13.67;8.73;;;;;;;22.47;43.50;95107.78;5038067;28;20201;-70
2021/09/17 01:56:33;;;;;;;11.50;8.77;;;;;;;22.33;44.36;95097.38;5051623;28;20230;-71
2021/09/17 01:59:01;;;;;;;11.53;9.07;;;;;;;22.24;44.39;95083.31;5037786;28;20193;-70
2021/09/17 02:01:28;;;;;;;14.43;9.07;;;;;;;22.38;44.32;95099.06;5051841;28;20213;-72
2021/09/17 02:03:55;;;;;;;12.30;9.57;;;;;;;22.14;45.01;95091.66;5052129;28;20254;-71
2021/09/17 02:06:24;;;;;;;13.13;9.13;;;;;;;22.16;45.03;95094.78;5060312;28;20204;-70
2021/09/17 02:08:52;;;;;;;15.63;9.93;;;;;;;22.17;44.77;95098.25;5069155;28;20200;-71
2021/09/17 02:11:19;;;;;;;11.27;8.73;;;;;;;22.27;44.77;95097.88;5055174;28;20192;-71
2021/09/17 02:13:46;;;;;;;10.97;8.73;;;;;;;22.12;44.38;95085.88;5059743;28;20192;-70
2021/09/17 02:16:13;;;;;;;11.60;8.50;;;;;;;22.15;44.25;95095.91;5052939;28;20754;-72
2021/09/17 02:18:40;;;;;;;10.67;7.87;;;;;;;22.09;44.75;95091.84;5051877;28;20228;-72
2021/09/17 02:21:07;;;;;;;11.57;8.60;;;;;;;22.08;45.05;95090.28;5058399;28;20232;-71
2021/09/17 02:23:34;;;;;;;11.30;8.47;;;;;;;22.10;45.15;95093.41;5052022;28;20200;-71
2021/09/17 02:26:02;;;;;;;10.90;9.00;;;;;;;22.24;44.68;95087.84;5051482;28;20204;-72
2021/09/17 02:28:29;;;;;;;12.20;8.50;;;;;;;22.07;45.43;95080.72;5051783;28;20189;-72
2021/09/17 02:30:56;;;;;;;12.70;8.50;;;;;;;22.02;45.69;95083.59;5063048;28;20206;-73
2021/09/17 02:33:22;;;;;;;12.77;9.33;;;;;;;21.99;45.75;95070.88;5059407;28;20196;-73
2021/09/17 02:35:49;;;;;;;19.53;9.17;;;;;;;22.08;46.32;95085.72;5057700;28;20198;-74
2021/09/17 02:38:17;;;;;;;10.97;8.53;;;;;;;21.99;47.24;95086.88;5053920;28;20224;-70
2021/09/17 02:40:44;;;;;;;13.53;9.10;;;;;;;21.92;47.12;95091.94;5056421;28;20200;-72
2021/09/17 02:43:11;;;;;;;15.67;8.83;;;;;;;22.00;46.52;95083.13;5061866;28;20240;-73
2021/09/17 02:45:38;;;;;;;14.20;10.17;;;;;;;22.04;46.57;95089.38;5062868;28;20203;-71
2021/09/17 02:48:05;;;;;;;15.10;9.77;;;;;;;22.05;46.68;95085.59;5061744;28;20227;-72
2021/09/17 02:50:32;;;;;;;18.57;9.93;;;;;;;22.07;46.27;95075.38;5062333;28;20258;-72
2021/09/17 02:53:00;;;;;;;17.03;10.07;;;;;;;21.94;46.50;95074.50;5043840;28;20196;-70
2021/09/17 02:55:27;;;;;;;15.83;9.77;;;;;;;21.97;46.42;95071.19;5051459;28;20192;-71
2021/09/17 02:57:55;;;;;;;13.83;9.50;;;;;;;21.96;46.74;95050.16;5038256;28;20687;-70
2021/09/17 03:00:22;;;;;;;15.67;10.50;;;;;;;21.95;46.52;95068.06;5057553;28;20187;-71
2021/09/17 03:02:50;;;;;;;17.93;9.93;;;;;;;21.87;46.49;95084.13;5056085;28;20250;-73
2021/09/17 03:05:17;;;;;;;17.57;9.83;;;;;;;21.97;46.04;95083.75;5051392;28;20188;-72
2021/09/17 03:07:44;;;;;;;15.87;9.97;;;;;;;21.97;45.22;95073.06;5062419;28;20231;-71
2021/09/17 03:10:11;;;;;;;14.37;9.90;;;;;;;21.79;46.24;95067.03;5059912;28;20299;-71
2021/09/17 03:12:38;;;;;;;14.40;10.10;;;;;;;21.85;46.39;95067.66;5050068;28;20193;-70
2021/09/17 03:15:07;;;;;;;14.33;9.33;;;;;;;22.02;46.65;95064.91;5054739;28;20196;-72
2021/09/17 03:17:34;;;;;;;12.27;10.40;;;;;;;21.92;46.74;95054.59;5058467;28;20231;-72
2021/09/17 03:20:01;;;;;;;17.17;10.97;;;;;;;22.00;46.68;95067.09;5053442;28;20201;-71
2021/09/17 03:22:28;;;;;;;21.10;10.63;;;;;;;21.96;46.23;95063.50;5050602;28;20575;-71
2021/09/17 03:24:55;;;;;;;13.07;9.90;;;;;;;21.73;46.24;95057.63;5049218;28;20196;-71
2021/09/17 03:27:22;;;;;;;12.63;9.63;;;;;;;21.81;46.74;95059.50;5049903;28;20196;-72
2021/09/17 03:29:48;;;;;;;16.20;10.60;;;;;;;21.87;46.51;95073.44;5050600;28;20200;-72
2021/09/17 03:32:15;;;;;;;20.73;10.33;;;;;;;21.84;47.18;95068.75;5054680;28;20662;-70
2021/09/17 03:34:44;;;;;;;11.03;9.67;;;;;;;21.68;48.07;95065.81;5053970;28;20210;-71
2021/09/17 03:37:11;;;;;;;21.03;10.70;;;;;;;21.68;47.20;95059.69;5066680;28;20654;-69
2021/09/17 03:39:38;;;;;;;15.87;10.87;;;;;;;21.71;47.39;95075.06;5060665;28;20195;-72
2021/09/17 03:42:06;;;;;;;20.67;10.70;;;;;;;21.74;46.95;95069.88;5050254;28;20184;-71
2021/09/17 03:44:34;;;;;;;16.10;10.17;;;;;;;21.70;47.42;95062.81;5055981;28;20710;-72
2021/09/17 03:47:01;;;;;;;16.17;10.73;;;;;;;21.80;47.05;95073.97;5059088;28;20199;-72
2021/09/17 03:49:28;;;;;;;19.37;10.03;;;;;;;21.70;47.17;95062.81;5053371;28;20201;-70
2021/09/17 03:51:56;;;;;;;16.80;10.73;;;;;;;21.70;47.13;95068.16;5063062;28;20192;-70
2021/09/17 03:54:27;;;;;;;16.53;10.30;;;;;;;21.81;46.21;95074.72;5056243;28;20184;-70
2021/09/17 03:56:55;;;;;;;18.10;11.17;;;;;;;21.84;45.72;95080.19;5049852;28;20188;-70
2021/09/17 03:59:23;;;;;;;17.63;10.47;;;;;;;21.44;46.86;95070.16;5063054;28;20199;-69
2021/09/17 04:01:50;;;;;;;16.67;10.77;;;;;;;21.61;47.45;95072.75;5042378;28;20670;-71
2021/09/17 04:04:17;;;;;;;15.83;10.80;;;;;;;21.63;47.81;95054.53;5043879;28;20200;-69
2021/09/17 04:06:44;;;;;;;21.40;11.03;;;;;;;21.22;48.00;95065.03;5040300;28;20236;-69
2021/09/17 04:09:10;;;;;;;14.33;10.53;;;;;;;21.39;48.33;95062.31;5038171;28;20189;-69
2021/09/17 04:11:37;;;;;;;22.30;12.17;;;;;;;21.44;48.95;95070.16;5054540;28;20253;-71
2021/09/17 04:14:04;;;;;;;22.90;11.63;;;;;;;20.93;47.76;95061.13;5058289;28;20188;-71
2021/09/17 04:16:31;;;;;;;18.00;11.33;;;;;;;21.17;48.14;95057.97;5056695;28;20215;-70
2021/09/17 04:18:58;;;;;;;22.57;11.90;;;;;;;21.41;47.99;95065.44;5056766;28;20212;-75
2021/09/17 04:21:25;;;;;;;18.37;11.47;;;;;;;21.52;47.61;95072.00;5055612;28;20226;-70
2021/09/17 04:23:52;;;;;;;19.60;10.57;;;;;;;21.49;48.04;95083.31;5049722;28;20544;-71
2021/09/17 04:26:18;;;;;;;18.50;11.80;;;;;;;21.52;47.69;95083.44;5055745;28;20651;-71
2021/09/17 04:28:45;;;;;;;17.03;11.00;;;;;;;21.60;47.49;95081.84;5049626;28;20199;-71
2021/09/17 04:31:12;;;;;;;19.77;10.70;;;;;;;21.58;48.19;95087.50;5049067;28;20283;-70
2021/09/17 04:33:39;;;;;;;20.20;11.63;;;;;;;21.46;48.58;95095.38;5056139;28;20209;-70
2021/09/17 04:36:07;;;;;;;23.53;10.90;;;;;;;21.50;48.18;95103.53;5055957;28;20196;-69
2021/09/17 04:38:34;;;;;;;21.43;10.97;;;;;;;21.50;48.68;95092.84;5054740;28;20238;-70
2021/09/17 04:41:02;;;;;;;15.17;11.60;;;;;;;21.43;49.22;95096.03;5054036;28;20231;-72
2021/09/17 04:43:29;;;;;;;19.73;12.07;;;;;;;21.41;48.52;95100.09;5055237;28;20240;-67
2021/09/17 04:45:55;;;;;;;48.33;36.53;;;;;;;21.37;48.37;95096.53;5045831;28;20659;-71
2021/09/17 04:48:22;;;;;;;113.43;65.93;;;;;;;21.51;48.36;95089.09;5048108;28;20215;-72
2021/09/17 04:50:49;;;;;;;55.97;42.93;;;;;;;21.60;48.09;95087.19;5047391;28;20208;-71
2021/09/17 04:53:16;;;;;;;23.73;13.00;;;;;;;21.39;48.10;95088.97;5066326;28;20195;-67
2021/09/17 04:55:43;;;;;;;21.20;12.33;;;;;;;21.31;48.85;95082.59;5065192;28;20266;-69
2021/09/17 04:58:10;;;;;;;57.17;43.20;;;;;;;21.32;49.54;95083.34;5063721;28;20235;-68
2021/09/17 05:00:39;;;;;;;93.40;77.70;;;;;;;21.25;49.37;95078.50;5056299;28;20203;-68
2021/09/17 05:03:06;;;;;;;19.90;15.07;;;;;;;21.29;49.28;95076.78;5055797;28;20192;-67
2021/09/17 05:05:34;;;;;;;28.67;13.10;;;;;;;21.46;48.49;95083.94;5056218;28;20208;-67
2021/09/17 05:08:00;;;;;;;26.87;13.17;;;;;;;21.47;48.25;95072.97;5059027;28;20705;-67
2021/09/17 05:10:28;;;;;;;25.67;13.10;;;;;;;21.57;47.86;95080.59;5059908;28;20623;-68
2021/09/17 05:12:54;;;;;;;18.87;11.97;;;;;;;21.54;47.93;95080.47;5054985;28;20262;-67
2021/09/17 05:15:22;;;;;;;18.47;13.00;;;;;;;21.54;47.41;95069.78;5048759;28;20523;-66
2021/09/17 05:17:49;;;;;;;33.83;16.67;;;;;;;21.53;48.80;95079.66;5051887;28;21087;-66
2021/09/17 05:20:17;;;;;;;28.13;16.23;;;;;;;21.56;49.10;95086.25;5050132;28;20203;-66
2021/09/17 05:22:45;;;;;;;28.30;13.33;;;;;;;21.62;48.19;95087.66;5054983;28;20200;-66
2021/09/17 05:25:12;;;;;;;34.43;19.13;;;;;;;21.84;47.17;95087.44;5052168;28;20242;-70
2021/09/17 05:27:39;;;;;;;26.17;18.47;;;;;;;21.64;47.58;95077.44;5052006;28;20200;-70
2021/09/17 05:30:08;;;;;;;35.00;13.77;;;;;;;21.11;48.77;95057.38;5046809;28;20197;-66
2021/09/17 05:32:35;;;;;;;29.93;14.17;;;;;;;21.52;48.50;95061.31;5046478;28;20197;-69
2021/09/17 05:35:04;;;;;;;36.10;12.87;;;;;;;21.71;47.97;95064.41;5044459;28;20571;-69
2021/09/17 05:37:32;;;;;;;26.20;12.50;;;;;;;21.76;47.97;95069.53;5048870;28;20217;-68
2021/09/17 05:39:58;;;;;;;29.23;13.70;;;;;;;21.89;48.28;95071.25;5044501;28;20192;-68
2021/09/17 05:42:25;;;;;;;35.77;14.80;;;;;;;21.89;48.58;95060.56;5044003;28;20204;-69
2021/09/17 05:44:52;;;;;;;23.27;13.40;;;;;;;21.87;48.49;95068.91;5030120;28;20629;-69
2021/09/17 05:47:19;;;;;;;30.20;12.77;;;;;;;22.06;48.37;95076.50;5031757;28;20208;-68
2021/09/17 05:49:46;;;;;;;24.10;12.10;;;;;;;22.05;48.39;95074.91;5024698;28;20206;-70
2021/09/17 05:52:13;;;;;;;46.73;24.07;;;;;;;21.94;48.52;95076.41;5025550;28;20236;-69
2021/09/17 05:54:40;;;;;;;31.47;16.50;;;;;;;21.98;48.54;95063.97;5032718;28;20197;-69
2021/09/17 05:57:07;;;;;;;39.37;27.67;;;;;;;22.13;48.54;95066.09;5032385;28;20667;-70
2021/09/17 05:59:34;;;;;;;36.50;18.47;;;;;;;22.13;48.81;95066.09;5031673;28;20833;-69
2021/09/17 06:02:03;;;;;;;31.87;16.10;;;;;;;21.94;50.06;95057.72;5031546;28;20746;-69
2021/09/17 06:04:30;;;;;;;29.23;13.50;;;;;;;21.92;49.48;95067.91;5018696;28;20689;-69
2021/09/17 06:06:57;;;;;;;27.43;12.90;;;;;;;21.94;49.46;95065.72;5031559;28;20197;-70
2021/09/17 06:09:24;;;;;;;26.90;11.87;;;;;;;21.92;49.43;95065.25;5031863;28;20189;-68
2021/09/17 06:11:50;;;;;;;37.67;14.17;;;;;;;22.02;49.18;95070.25;5031456;28;20208;-69
2021/09/17 06:14:17;;;;;;;26.80;12.33;;;;;;;21.98;49.24;95063.97;5031493;28;20246;-68
2021/09/17 06:16:44;;;;;;;31.13;13.50;;;;;;;22.11;49.04;95084.31;5032202;28;20201;-70
2021/09/17 06:19:11;;;;;;;31.63;13.17;;;;;;;21.87;50.31;95078.78;5031899;28;20216;-69
2021/09/17 06:21:38;;;;;;;21.33;12.50;;;;;;;21.87;49.86;95068.13;5031435;28;20217;-69
2021/09/17 06:24:05;;;;;;;18.37;10.90;;;;;;;21.96;48.76;95066.97;5031603;28;20208;-68
2021/09/17 06:26:32;;;;;;;17.83;11.87;;;;;;;22.14;48.73;95067.66;5031180;28;20197;-68
2021/09/17 06:29:02;;;;;;;38.77;12.97;;;;;;;22.14;48.76;95072.97;5031738;28;20200;-69
2021/09/17 06:31:29;;;;;;;33.63;13.80;;;;;;;22.22;48.99;95066.03;5031419;28;20201;-68
2021/09/17 06:33:56;;;;;;;27.30;12.87;;;;;;;22.04;48.68;95052.03;5032457;28;20887;-69
2021/09/17 06:36:23;;;;;;;36.60;13.03;;;;;;;22.34;48.87;95045.53;5030514;28;20208;-70
2021/09/17 06:38:50;;;;;;;37.40;13.77;;;;;;;22.28;49.52;95048.72;5031056;28;20228;-70
2021/09/17 06:41:17;;;;;;;28.97;13.00;;;;;;;22.45;48.34;95046.72;5031354;28;20193;-70
2021/09/17 06:43:44;;;;;;;29.17;12.60;;;;;;;22.45;48.33;95062.72;5042475;28;20232;-69
2021/09/17 06:46:12;;;;;;;28.23;12.20;;;;;;;22.63;45.38;95050.03;5050641;28;21007;-69
2021/09/17 06:48:39;;;;;;;27.43;12.17;;;;;;;22.79;45.68;95057.13;5051890;28;20224;-68
2021/09/17 06:51:06;;;;;;;30.67;12.23;;;;;;;22.92;45.06;95057.97;5032364;28;20308;-70
2021/09/17 06:53:33;;;;;;;26.17;12.30;;;;;;;23.00;46.85;95068.59;5042953;28;20757;-69
2021/09/17 06:56:00;;;;;;;21.30;12.27;;;;;;;22.99;43.84;95055.56;5060396;28;20189;-69
2021/09/17 06:58:33;;;;;;;29.60;13.97;;;;;;;23.21;44.66;95057.06;5061407;28;20224;-69
2021/09/17 07:01:01;;;;;;;30.23;11.87;;;;;;;23.31;42.61;95072.72;5064484;28;20547;-70
2021/09/17 07:03:28;;;;;;;24.40;11.77;;;;;;;23.39;42.43;95069.97;5064837;28;20201;-70
2021/09/17 07:05:55;;;;;;;24.70;9.17;;;;;;;23.31;40.95;95062.81;5053555;28;20205;-70
2021/09/17 07:08:23;;;;;;;20.30;9.33;;;;;;;23.44;42.08;95060.94;5052354;28;20591;-70
2021/09/17 07:10:50;;;;;;;27.03;9.33;;;;;;;23.46;43.55;95042.66;5051200;28;20243;-69
2021/09/17 07:13:39;;;;;;;22.60;10.03;;;;;;;23.69;42.69;95035.75;5051513;28;20197;-72
2021/09/17 07:16:06;;;;;;;25.07;9.40;;;;;;;23.85;41.19;95047.34;5050999;28;20246;-72
2021/09/17 07:18:33;;;;;;;20.37;9.17;;;;;;;23.83;40.41;95041.59;5051127;28;20228;-70
2021/09/17 07:21:01;;;;;;;24.03;8.90;;;;;;;23.80;40.98;95012.78;5050184;28;20196;-71
2021/09/17 07:23:29;;;;;;;19.23;8.93;;;;;;;23.81;41.16;95011.69;5051006;28;20292;-70
2021/09/17 07:25:56;;;;;;;30.53;9.70;;;;;;;24.17;41.46;95019.72;5050147;28;20651;-73
2021/09/17 07:28:23;;;;;;;14.07;7.53;;;;;;;24.12;40.61;95011.91;5050986;28;20200;-68
2021/09/17 07:30:50;;;;;;;16.93;8.60;;;;;;;24.20;39.16;95011.00;5050318;28;20200;-69
2021/09/17 07:33:16;;;;;;;11.23;8.07;;;;;;;24.27;38.47;95011.19;5050261;28;20693;-69
2021/09/17 07:35:43;;;;;;;11.37;8.50;;;;;;;24.26;40.34;95006.97;5050281;28;20197;-69
2021/09/17 07:38:10;;;;;;;14.20;7.90;;;;;;;24.27;39.13;95011.19;5050484;28;20221;-70
2021/09/17 07:40:37;;;;;;;16.97;9.10;;;;;;;24.63;38.77;95005.75;5050941;28;20337;-70
2021/09/17 07:43:04;;;;;;;19.80;9.10;;;;;;;24.68;38.43;94997.47;5049476;28;20593;-69
2021/09/17 07:45:32;;;;;;;17.43;8.10;;;;;;;24.75;38.98;94989.63;5050862;28;20220;-68
2021/09/17 07:48:00;;;;;;;17.73;9.57;;;;;;;24.75;37.49;94994.22;5049146;28;20200;-69
2021/09/17 07:50:27;;;;;;;19.10;9.90;;;;;;;24.67;38.57;94995.88;5050518;28;20203;-70
2021/09/17 07:52:55;;;;;;;16.17;9.37;;;;;;;24.57;38.76;95001.75;5050547;28;20193;-70
2021/09/17 07:55:24;;;;;;;25.27;10.03;;;;;;;24.86;38.25;94982.66;5050337;28;20202;-70
2021/09/17 07:57:50;;;;;;;26.77;10.80;;;;;;;24.92;38.83;94992.03;5045253;28;20534;-69
2021/09/17 08:00:17;;;;;;;21.40;9.33;;;;;;;25.13;37.95;94991.78;5040937;28;20261;-69
2021/09/17 08:02:44;;;;;;;18.00;9.03;;;;;;;25.25;38.16;94988.25;5038348;28;20199;-69
2021/09/17 08:05:13;;;;;;;18.07;9.27;;;;;;;25.18;38.13;94978.13;5050880;28;20322;-68
2021/09/17 08:07:40;;;;;;;17.17;8.17;;;;;;;25.20;35.83;94972.44;5049178;28;20192;-70
2021/09/17 08:10:08;;;;;;;17.47;8.13;;;;;;;25.09;36.54;94967.56;5049929;28;20212;-69
2021/09/17 08:12:35;;;;;;;16.87;8.03;;;;;;;25.42;37.15;94961.13;5050065;28;20200;-70
2021/09/17 08:15:04;;;;;;;14.13;8.30;;;;;;;25.50;37.52;94960.16;5050433;28;20205;-69
2021/09/17 08:17:31;;;;;;;16.10;8.53;;;;;;;25.51;37.07;94951.00;5049596;28;20207;-70
2021/09/17 08:20:07;;;;;;;12.40;7.97;;;;;;;25.82;36.17;94938.28;5050095;28;20239;-69
2021/09/17 08:22:34;;;;;;;12.77;7.90;;;;;;;25.81;37.24;94952.06;5049872;28;20197;-70
2021/09/17 08:25:02;;;;;;;24.40;8.53;;;;;;;25.89;35.84;94953.78;5050174;28;20188;-69
2021/09/17 08:27:29;;;;;;;15.20;8.57;;;;;;;26.03;35.84;94943.34;5049852;28;20212;-69
2021/09/17 08:29:56;;;;;;;12.13;8.03;;;;;;;25.51;35.55;94937.59;5049786;28;20189;-70
2021/09/17 08:32:24;;;;;;;17.00;7.77;;;;;;;25.85;36.76;94939.50;5049622;28;20200;-69
2021/09/17 08:34:51;;;;;;;13.63;7.83;;;;;;;26.16;35.93;94935.97;5049880;28;20197;-71
2021/09/17 08:37:18;;;;;;;20.33;7.67;;;;;;;26.19;34.63;94943.31;5049544;28;20200;-68
2021/09/17 08:39:45;;;;;;;11.67;7.67;;;;;;;26.28;35.78;94939.28;5050002;28;20228;-69
2021/09/17 08:42:12;;;;;;;11.20;7.60;;;;;;;26.38;35.54;94933.38;5050251;28;20216;-68
2021/09/17 08:44:42;;;;;;;17.23;7.93;;;;;;;26.50;35.35;94941.28;5049842;28;20220;-69
2021/09/17 08:47:16;;;;;;;16.83;8.53;;;;;;;26.63;34.15;94941.91;5049176;28;20193;-68
2021/09/17 08:49:45;;;;;;;15.40;7.50;;;;;;;26.64;34.88;94941.53;5041670;28;20208;-69
2021/09/17 08:52:12;;;;;;;17.00;8.33;;;;;;;26.63;36.05;94907.75;5043492;28;20200;-69
2021/09/17 08:54:41;;;;;;;16.37;8.40;;;;;;;26.83;35.87;94943.47;5049789;28;20679;-69
2021/09/17 08:57:08;;;;;;;13.97;8.53;;;;;;;26.95;35.54;94936.00;5049210;28;20714;-68
2021/09/17 08:59:35;;;;;;;12.87;7.67;;;;;;;27.13;35.58;94935.53;5051936;28;20262;-68
2021/09/17 09:02:25;;;;;;;21.60;7.97;;;;;;;27.38;34.81;94931.38;5053029;28;20315;-68
2021/09/17 09:05:04;;;;;;;15.87;8.37;;;;;;;27.60;34.28;94922.50;5042481;28;20204;-68
2021/09/17 09:07:35;;;;;;;18.07;8.53;;;;;;;27.75;33.60;94926.97;5052300;28;20212;-70
2021/09/17 09:10:09;;;;;;;14.57;7.47;;;;;;;27.62;33.22;94918.31;5053490;28;20200;-69
2021/09/17 09:12:42;;;;;;;16.43;8.20;;;;;;;27.81;35.28;94922.78;5059473;28;20193;-69
2021/09/17 09:15:15;;;;;;;18.50;8.30;;;;;;;28.09;33.63;94922.44;5064770;28;20199;-68
2021/09/17 09:17:43;;;;;;;18.10;7.77;;;;;;;28.30;32.85;94923.50;5062800;28;20207;-69
2021/09/17 09:20:25;;;;;;;14.80;8.10;;;;;;;28.24;32.33;94911.50;5064329;28;20213;-68
2021/09/17 09:23:22;;;;;;;12.83;7.17;;;;;;;28.12;33.25;94900.94;5056921;28;20204;-71
2021/09/17 09:26:03;;;;;;;14.13;7.50;;;;;;;28.54;33.23;94895.31;5059817;28;20203;-71
2021/09/17 09:28:34;;;;;;;18.43;8.83;;;;;;;28.63;33.77;94899.25;5041386;28;20200;-69
2021/09/17 09:31:08;;;;;;;22.73;8.40;;;;;;;28.89;33.58;94896.44;5052605;28;20204;-69
2021/09/17 09:33:38;;;;;;;19.20;8.20;;;;;;;29.05;32.42;94900.84;5053039;28;20215;-70
2021/09/17 09:36:13;;;;;;;15.03;7.50;;;;;;;29.25;32.70;94902.19;5052972;28;20201;-70
2021/09/17 09:38:54;;;;;;;17.70;7.73;;;;;;;29.40;31.61;94904.63;5053278;28;20230;-70
2021/09/17 09:41:30;;;;;;;15.83;6.83;;;;;;;29.35;31.19;94894.19;5052209;28;20578;-68
2021/09/17 09:44:04;;;;;;;25.17;7.57;;;;;;;29.43;31.29;94889.63;5052639;28;20646;-69
2021/09/17 09:46:33;;;;;;;23.37;8.13;;;;;;;29.10;32.13;94878.91;5052439;28;20196;-68
2021/09/17 09:49:01;;;;;;;16.07;7.60;;;;;;;29.28;31.24;94877.16;5050791;28;20279;-70
2021/09/17 09:51:30;;;;;;;19.93;7.80;;;;;;;29.15;31.47;94868.56;5032049;28;20201;-69
2021/09/17 09:54:00;;;;;;;18.40;7.77;;;;;;;29.02;31.57;94867.28;5046900;28;20302;-69
2021/09/17 09:56:27;;;;;;;18.83;8.07;;;;;;;28.60;30.78;94862.25;5045458;28;20201;-69
2021/09/17 09:58:54;;;;;;;21.13;6.87;;;;;;;28.50;31.12;94868.25;5032263;28;20601;-69
2021/09/17 10:01:23;;;;;;;23.73;7.60;;;;;;;28.47;31.61;94858.22;5051333;28;20204;-69
2021/09/17 10:03:54;;;;;;;21.10;8.30;;;;;;;28.83;33.23;94857.47;5052493;28;20750;-70
2021/09/17 10:06:23;;;;;;;23.33;8.13;;;;;;;29.01;34.09;94844.16;5051737;28;20250;-69
2021/09/17 10:08:53;;;;;;;19.93;7.73;;;;;;;29.28;30.64;94836.66;5052194;28;20201;-69
2021/09/17 10:11:24;;;;;;;19.30;7.77;;;;;;;29.63;31.41;94847.69;5050642;28;20211;-68
2021/09/17 10:13:54;;;;;;;23.07;8.40;;;;;;;29.88;31.12;94841.31;5052696;28;20211;-69
2021/09/17 10:16:23;;;;;;;16.60;7.23;;;;;;;29.74;30.41;94843.16;5051457;28;20736;-69
2021/09/17 10:18:53;;;;;;;18.27;7.33;;;;;;;29.99;30.29;94857.56;5053753;28;20212;-68
2021/09/17 10:21:54;;;;;;;24.00;7.60;;;;;;;30.05;31.03;94849.88;5052547;28;20200;-69
2021/09/17 10:24:26;;;;;;;34.10;9.23;;;;;;;30.06;31.44;94849.50;5051625;28;20207;-69
2021/09/17 10:26:59;;;;;;;25.30;8.80;;;;;;;29.85;31.60;94833.19;5051358;28;20299;-69
2021/09/17 10:29:35;;;;;;;20.17;7.70;;;;;;;29.69;31.60;94830.00;5051786;28;20283;-68
2021/09/17 10:32:23;;;;;;;23.97;6.60;;;;;;;29.56;30.51;94826.06;5051507;28;20203;-68
2021/09/17 10:35:10;;;;;;;22.70;7.10;;;;;;;29.47;31.29;94833.72;5051437;28;20258;-68
2021/09/17 10:37:58;;;;;;;25.40;7.30;;;;;;;29.10;30.77;94830.34;5051268;28;20188;-67
2021/09/17 10:40:41;;;;;;;22.13;7.30;;;;;;;28.55;29.86;94822.16;5051696;28;20670;-68
2021/09/17 10:43:08;;;;;;;28.33;7.83;;;;;;;28.92;30.02;94812.06;5050613;28;20580;-69
2021/09/17 10:45:38;;;;;;;28.30;8.07;;;;;;;29.15;31.20;94805.72;5051791;28;20201;-69
2021/09/17 10:48:07;;;;;;;23.37;7.50;;;;;;;28.96;30.78;94810.19;5050976;28;20232;-68
2021/09/17 10:50:43;;;;;;;28.53;7.80;;;;;;;29.27;31.78;94802.75;5037798;28;20235;-69
2021/09/17 10:53:12;;;;;;;27.33;8.10;;;;;;;29.64;30.59;94792.53;5050826;28;20192;-69
2021/09/17 10:55:45;;;;;;;19.53;7.63;;;;;;;29.95;30.08;94794.63;5050884;28;20207;-69
2021/09/17 10:58:24;;;;;;;28.57;7.73;;;;;;;30.49;29.10;94788.25;5038838;28;20207;-69
2021/09/17 11:00:57;;;;;;;26.60;7.50;;;;;;;30.61;28.76;94780.53;5050699;28;20243;-71
2021/09/17 11:03:45;;;;;;;25.63;7.70;;;;;;;30.92;29.52;94770.91;5051378;28;20204;-69
2021/09/17 11:06:18;;;;;;;30.23;6.73;;;;;;;30.95;29.08;94775.53;5050732;28;20195;-69
2021/09/17 11:08:47;;;;;;;33.10;7.43;;;;;;;30.94;29.04;94767.81;5051915;28;20576;-69
2021/09/17 11:11:33;;;;;;;30.37;7.97;;;;;;;30.83;28.86;94757.78;5050527;28;20197;-70
2021/09/17 11:14:03;;;;;;;36.73;7.30;;;;;;;30.78;27.99;94757.38;5050949;28;20204;-70
2021/09/17 11:16:31;;;;;;;30.07;7.13;;;;;;;30.51;27.83;94746.13;5050473;28;20724;-68
2021/09/17 11:19:07;;;;;;;25.40;7.23;;;;;;;30.58;29.18;94750.78;5051193;28;20282;-69
2021/09/17 11:21:40;;;;;;;31.03;7.83;;;;;;;30.27;30.74;94730.66;5050361;28;20200;-69
2021/09/17 11:24:28;;;;;;;24.40;6.70;;;;;;;30.16;28.18;94751.47;5051159;28;20215;-70
2021/09/17 11:26:57;;;;;;;32.47;7.33;;;;;;;29.98;28.38;94753.34;5039261;28;20219;-70
2021/09/17 11:29:26;;;;;;;34.73;7.23;;;;;;;29.99;28.49;94740.59;5050792;28;20204;-68